createdAt,value
2022-12-20T00:01:30.350Z,52.70
2022-12-20T00:03:59.572Z,53.50
2022-12-20T00:06:26.655Z,55.85
2022-12-20T00:08:55.177Z,52.70
2022-12-20T00:11:22.021Z,54.55
2022-12-20T00:13:48.446Z,56.67
2022-12-20T00:16:20.528Z,52.45
2022-12-20T00:18:47.891Z,50.13
2022-12-20T00:21:15.107Z,51.47
2022-12-20T00:23:42.199Z,52.78
2022-12-20T00:26:12.320Z,52.72
2022-12-20T00:28:40.437Z,49.38
2022-12-20T00:31:07.895Z,51.13
2022-12-20T00:33:35.920Z,49.63
2022-12-20T00:36:02.335Z,49.85
2022-12-20T00:38:28.881Z,52.10
2022-12-20T00:41:06.849Z,50.85
2022-12-20T00:43:33.719Z,51.40
2022-12-20T00:46:01.006Z,48.40
2022-12-20T00:48:28.648Z,49.60
2022-12-20T00:51:00.288Z,54.67
2022-12-20T00:53:27.453Z,58.13
2022-12-20T00:55:54.494Z,51.33
2022-12-20T00:58:21.532Z,54.72
2022-12-20T01:00:55.927Z,49.92
2022-12-20T01:03:23.467Z,51.75
2022-12-20T01:05:56.275Z,56.05
2022-12-20T01:08:23.683Z,52.28
2022-12-20T01:11:00.039Z,50.47
2022-12-20T01:13:27.073Z,52.40
2022-12-20T01:15:53.623Z,49.53
2022-12-20T01:18:20.137Z,57.15
2022-12-20T01:20:46.641Z,53.15
2022-12-20T01:23:13.046Z,53.55
2022-12-20T01:25:39.441Z,54.08
2022-12-20T01:28:05.915Z,49.72
2022-12-20T01:30:32.363Z,52.78
2022-12-20T01:32:58.744Z,52.70
2022-12-20T01:35:25.162Z,53.13
2022-12-20T01:37:51.561Z,53.75
2022-12-20T01:40:17.974Z,51.45
2022-12-20T01:42:44.375Z,51.83
2022-12-20T01:45:21.767Z,55.42
2022-12-20T01:47:48.240Z,52.83
2022-12-20T01:50:14.670Z,52.33
2022-12-20T01:52:45.349Z,50.08
2022-12-20T01:55:15.114Z,53.37
2022-12-20T01:57:49.185Z,54.55
2022-12-20T02:00:17.203Z,51.15
2022-12-20T02:02:46.585Z,51.22
2022-12-20T02:05:14.609Z,52.25
2022-12-20T02:07:43.657Z,53.08
2022-12-20T02:10:12.460Z,53.25
2022-12-20T02:12:44.822Z,54.22
2022-12-20T02:15:20.234Z,51.00
2022-12-20T02:18:15.922Z,52.38
2022-12-20T02:20:48.424Z,50.53
2022-12-20T02:23:33.506Z,49.33
2022-12-20T02:26:34.625Z,53.88
2022-12-20T02:29:30.106Z,53.45
2022-12-20T02:32:23.265Z,51.95
2022-12-20T02:34:50.555Z,46.40
2022-12-20T02:37:17.097Z,53.03
2022-12-20T02:39:45.926Z,49.47
2022-12-20T02:42:16.045Z,50.67
2022-12-20T02:45:08.389Z,48.00
2022-12-20T02:47:41.255Z,49.50
2022-12-20T02:50:09.817Z,53.05
2022-12-20T02:52:38.631Z,52.15
2022-12-20T02:55:05.806Z,50.42
2022-12-20T02:58:01.586Z,51.50
2022-12-20T03:00:34.154Z,50.60
2022-12-20T03:03:37.042Z,53.38
2022-12-20T03:06:03.957Z,49.30
2022-12-20T03:08:30.628Z,53.10
2022-12-20T03:10:57.173Z,51.72
2022-12-20T03:13:25.054Z,51.10
2022-12-20T03:15:51.921Z,51.80
2022-12-20T03:18:18.601Z,52.17
2022-12-20T03:20:45.064Z,52.67
2022-12-20T03:23:11.475Z,51.50
2022-12-20T03:25:37.937Z,52.15
2022-12-20T03:28:04.952Z,50.75
2022-12-20T03:30:31.751Z,51.15
2022-12-20T03:32:58.293Z,54.95
2022-12-20T03:35:24.795Z,55.50
2022-12-20T03:37:51.199Z,52.80
2022-12-20T03:40:17.675Z,50.90
2022-12-20T03:42:44.160Z,51.30
2022-12-20T03:45:11.195Z,56.20
2022-12-20T03:47:37.933Z,57.58
2022-12-20T03:50:06.226Z,56.88
2022-12-20T03:52:32.847Z,51.70
2022-12-20T03:54:59.286Z,50.63
2022-12-20T03:57:25.761Z,54.47
2022-12-20T03:59:54.159Z,53.22
2022-12-20T04:02:21.631Z,53.83
2022-12-20T04:04:48.791Z,52.10
2022-12-20T04:07:15.625Z,53.13
2022-12-20T04:09:42.062Z,53.85
2022-12-20T04:12:08.492Z,54.72
2022-12-20T04:14:35.840Z,57.42
2022-12-20T04:17:02.254Z,52.17
2022-12-20T04:19:28.756Z,55.22
2022-12-20T04:22:02.695Z,58.42
2022-12-20T04:24:31.510Z,54.90
2022-12-20T04:26:57.955Z,56.17
2022-12-20T04:29:24.386Z,55.25
2022-12-20T04:31:50.930Z,56.72
2022-12-20T04:34:17.583Z,56.20
2022-12-20T04:36:43.993Z,54.97
2022-12-20T04:39:10.528Z,57.75
2022-12-20T04:41:36.984Z,55.85
2022-12-20T04:44:03.636Z,52.40
2022-12-20T04:46:30.190Z,53.83
2022-12-20T04:48:59.018Z,54.65
2022-12-20T04:51:27.578Z,52.60
2022-12-20T04:53:54.536Z,55.17
2022-12-20T04:56:28.702Z,53.70
2022-12-20T04:58:57.631Z,48.83
2022-12-20T05:01:24.295Z,51.35
2022-12-20T05:03:50.974Z,56.15
2022-12-20T05:06:17.863Z,52.72
2022-12-20T05:08:44.364Z,53.92
2022-12-20T05:11:11.818Z,48.83
2022-12-20T05:13:38.957Z,52.28
2022-12-20T05:16:05.694Z,50.92
2022-12-20T05:18:32.506Z,51.83
2022-12-20T05:21:19.307Z,51.58
2022-12-20T05:24:05.044Z,54.75
2022-12-20T05:26:33.958Z,53.17
2022-12-20T05:29:00.361Z,52.38
2022-12-20T05:31:27.028Z,52.38
2022-12-20T05:33:54.229Z,52.63
2022-12-20T05:36:20.702Z,49.38
2022-12-20T05:38:47.168Z,53.95
2022-12-20T05:41:13.638Z,51.90
2022-12-20T05:43:40.412Z,49.50
2022-12-20T05:46:07.173Z,50.83
2022-12-20T05:48:34.151Z,51.38
2022-12-20T05:51:01.246Z,50.45
2022-12-20T05:53:27.816Z,52.05
2022-12-20T05:55:54.522Z,48.97
2022-12-20T05:58:21.535Z,51.17
2022-12-20T06:00:48.010Z,53.65
2022-12-20T06:03:18.891Z,53.00
2022-12-20T06:05:46.417Z,51.83
2022-12-20T06:08:13.664Z,48.92
2022-12-20T06:10:44.154Z,52.33
2022-12-20T06:13:11.294Z,51.40
2022-12-20T06:15:38.391Z,50.80
2022-12-20T06:18:05.924Z,49.08
2022-12-20T06:20:33.706Z,51.65
2022-12-20T06:23:00.513Z,51.08
2022-12-20T06:25:27.183Z,51.22
2022-12-20T06:27:53.967Z,50.80
2022-12-20T06:30:20.519Z,49.67
2022-12-20T06:32:47.062Z,49.38
2022-12-20T06:35:14.613Z,52.22
2022-12-20T06:37:42.137Z,48.40
2022-12-20T06:40:10.841Z,45.67
2022-12-20T06:42:37.499Z,45.45
2022-12-20T06:45:05.005Z,49.30
2022-12-20T06:47:31.509Z,48.83
2022-12-20T06:49:58.158Z,47.88
2022-12-20T06:52:24.803Z,50.63
2022-12-20T06:54:52.692Z,44.67
2022-12-20T06:57:19.441Z,47.15
2022-12-20T06:59:45.985Z,44.15
2022-12-20T07:02:12.627Z,44.70
2022-12-20T07:04:39.304Z,47.38
2022-12-20T07:07:06.203Z,49.85
2022-12-20T07:09:32.897Z,45.05
2022-12-20T07:11:59.797Z,44.75
2022-12-20T07:14:26.296Z,46.67
2022-12-20T07:16:52.799Z,48.28
2022-12-20T07:19:19.247Z,47.75
2022-12-20T07:21:47.150Z,48.50
2022-12-20T07:24:13.574Z,46.47
2022-12-20T07:26:39.998Z,48.13
2022-12-20T07:29:10.463Z,44.55
2022-12-20T07:31:40.189Z,45.53
2022-12-20T07:34:06.658Z,45.50
2022-12-20T07:36:33.092Z,47.38
2022-12-20T07:38:59.523Z,44.95
2022-12-20T07:41:26.054Z,44.70
2022-12-20T07:43:52.566Z,48.65
2022-12-20T07:46:19.441Z,44.70
2022-12-20T07:48:45.992Z,46.95
2022-12-20T07:51:25.661Z,46.72
2022-12-20T07:54:02.295Z,44.50
2022-12-20T07:56:29.869Z,45.03
2022-12-20T07:58:59.525Z,44.55
2022-12-20T08:01:28.202Z,43.55
2022-12-20T08:04:00.249Z,44.75
2022-12-20T08:06:26.783Z,40.42
2022-12-20T08:08:57.621Z,44.28
2022-12-20T08:11:25.846Z,43.95
2022-12-20T08:13:57.721Z,43.85
2022-12-20T08:16:25.859Z,44.42
2022-12-20T08:18:52.683Z,47.92
2022-12-20T08:21:19.165Z,49.17
2022-12-20T08:23:45.614Z,45.67
2022-12-20T08:26:12.034Z,47.47
2022-12-20T08:28:38.446Z,51.38
2022-12-20T08:31:07.289Z,55.70
2022-12-20T08:33:36.067Z,64.05
2022-12-20T08:36:06.455Z,48.75
2022-12-20T08:38:33.360Z,46.20
2022-12-20T08:41:09.059Z,44.88
2022-12-20T08:43:35.614Z,65.40
2022-12-20T08:46:02.554Z,59.10
2022-12-20T08:48:29.275Z,52.85
2022-12-20T08:50:57.577Z,45.63
2022-12-20T08:53:24.672Z,44.60
2022-12-20T08:55:51.620Z,42.78
2022-12-20T08:58:18.308Z,44.67
2022-12-20T09:00:45.406Z,42.55
2022-12-20T09:03:13.949Z,47.92
2022-12-20T09:05:45.379Z,44.60
2022-12-20T09:08:11.931Z,42.83
2022-12-20T09:10:38.475Z,46.08
2022-12-20T09:13:04.956Z,45.08
2022-12-20T09:15:31.882Z,42.08
2022-12-20T09:18:00.202Z,46.45
2022-12-20T09:20:27.068Z,44.67
2022-12-20T09:22:53.477Z,44.28
2022-12-20T09:25:19.936Z,47.75
2022-12-20T09:27:46.333Z,43.45
2022-12-20T09:30:12.896Z,41.47
2022-12-20T09:32:39.372Z,41.13
2022-12-20T09:35:06.627Z,44.13
2022-12-20T09:37:34.692Z,41.88
2022-12-20T09:40:07.455Z,41.85
2022-12-20T09:42:34.394Z,43.88
2022-12-20T09:45:10.284Z,42.33
2022-12-20T09:47:37.860Z,43.10
2022-12-20T09:50:08.179Z,43.05
2022-12-20T09:53:18.478Z,41.35
2022-12-20T09:55:56.539Z,43.75
2022-12-20T09:58:31.764Z,38.40
2022-12-20T10:00:58.584Z,42.13
2022-12-20T10:03:32.628Z,40.30
2022-12-20T10:06:09.079Z,39.55
2022-12-20T10:08:52.764Z,40.72
2022-12-20T10:12:09.819Z,40.85
2022-12-20T10:15:00.474Z,39.60
2022-12-20T10:17:54.001Z,41.67
2022-12-20T10:20:28.597Z,43.58
2022-12-20T10:23:15.274Z,47.53
2022-12-20T10:25:43.202Z,41.85
2022-12-20T10:28:14.002Z,44.72
2022-12-20T10:30:41.281Z,46.47
2022-12-20T10:33:21.871Z,51.90
2022-12-20T10:35:50.508Z,52.45
2022-12-20T10:38:18.345Z,50.85
2022-12-20T10:43:49.477Z,46.00
2022-12-20T10:46:19.455Z,49.08
2022-12-20T10:48:48.232Z,46.53
2022-12-20T10:51:22.558Z,50.00
2022-12-20T10:54:03.946Z,44.60
2022-12-20T10:56:34.147Z,39.92
2022-12-20T10:59:23.891Z,44.88
2022-12-20T11:01:50.697Z,43.78
2022-12-20T11:04:30.747Z,38.70
2022-12-20T11:06:58.397Z,39.08
2022-12-20T11:09:26.706Z,41.00
2022-12-20T11:12:07.700Z,41.05
2022-12-20T11:14:39.560Z,37.58
2022-12-20T11:17:28.196Z,39.42
2022-12-20T11:20:22.387Z,38.55
2022-12-20T11:23:16.001Z,39.50
2022-12-20T11:26:00.642Z,40.78
2022-12-20T11:28:50.323Z,38.58
2022-12-20T11:31:35.632Z,40.22
2022-12-20T11:34:03.338Z,38.95
2022-12-20T11:36:55.951Z,43.70
2022-12-20T11:40:09.644Z,42.55
2022-12-20T11:42:54.437Z,37.65
2022-12-20T11:45:26.850Z,42.35
2022-12-20T11:48:19.425Z,39.88
2022-12-20T11:50:54.146Z,36.90
2022-12-20T11:53:24.649Z,39.63
2022-12-20T11:55:56.225Z,37.53
2022-12-20T12:01:08.663Z,35.53
2022-12-20T12:03:37.763Z,37.05
2022-12-20T12:06:20.402Z,40.22
2022-12-20T12:08:53.381Z,37.95
2022-12-20T12:12:05.132Z,39.78
2022-12-20T12:14:45.743Z,42.33
2022-12-20T12:17:21.879Z,39.92
2022-12-20T12:19:50.535Z,39.35
2022-12-20T12:22:24.571Z,38.95
2022-12-20T12:24:56.030Z,38.17
2022-12-20T12:29:57.039Z,39.40
2022-12-20T12:32:31.199Z,39.45
2022-12-20T12:35:25.727Z,41.47
2022-12-20T12:38:33.981Z,66.80
2022-12-20T12:41:06.594Z,55.30
2022-12-20T12:43:51.896Z,56.42
2022-12-20T12:46:29.880Z,45.90
2022-12-20T12:49:01.896Z,43.28
2022-12-20T12:51:33.467Z,43.47
2022-12-20T12:56:44.665Z,38.22
2022-12-20T12:59:24.151Z,40.13
2022-12-20T13:02:11.015Z,39.03
2022-12-20T13:05:12.720Z,37.83
2022-12-20T13:07:43.525Z,40.03
2022-12-20T13:10:10.980Z,38.00
2022-12-20T13:12:41.002Z,38.70
2022-12-20T13:15:19.656Z,39.05
2022-12-20T13:17:52.172Z,42.38
2022-12-20T13:20:30.793Z,39.92
2022-12-20T13:23:17.297Z,41.72
2022-12-20T13:25:48.247Z,40.97
2022-12-20T13:28:23.682Z,42.15
2022-12-20T13:30:53.225Z,37.63
2022-12-20T13:33:24.881Z,42.92
2022-12-20T13:38:43.427Z,39.25
2022-12-20T13:41:19.743Z,37.55
2022-12-20T13:43:47.932Z,35.92
2022-12-20T13:46:24.259Z,37.72
2022-12-20T13:48:54.430Z,38.83
2022-12-20T13:51:24.756Z,39.60
2022-12-20T13:53:58.021Z,40.45
2022-12-20T13:56:35.751Z,39.65
2022-12-20T13:59:12.512Z,39.75
2022-12-20T14:01:48.577Z,53.58
2022-12-20T14:04:16.041Z,45.05
2022-12-20T14:06:42.714Z,41.03
2022-12-20T14:09:29.915Z,39.75
2022-12-20T14:12:17.889Z,40.25
2022-12-20T14:14:50.110Z,38.17
2022-12-20T14:17:44.385Z,39.90
2022-12-20T14:20:15.795Z,39.42
2022-12-20T14:22:52.222Z,39.97
2022-12-20T14:25:44.723Z,40.05
2022-12-20T14:28:31.330Z,40.38
2022-12-20T14:30:59.866Z,40.45
2022-12-20T14:33:33.843Z,39.78
2022-12-20T14:36:15.598Z,41.67
2022-12-20T14:38:44.540Z,32.67
2022-12-20T14:41:29.642Z,39.95
2022-12-20T14:43:59.327Z,37.63
2022-12-20T14:46:25.851Z,40.13
2022-12-20T14:49:31.887Z,48.17
2022-12-20T14:52:14.361Z,40.92
2022-12-20T14:55:07.904Z,36.78
2022-12-20T14:57:35.089Z,38.78
2022-12-20T15:00:10.549Z,44.00
2022-12-20T15:02:44.168Z,37.72
2022-12-20T15:05:32.264Z,37.60
2022-12-20T15:08:17.478Z,36.05
2022-12-20T15:11:22.850Z,36.50
2022-12-20T15:13:53.070Z,36.15
2022-12-20T15:16:24.903Z,39.20
2022-12-20T15:18:59.448Z,38.83
2022-12-20T15:21:30.581Z,40.90
2022-12-20T15:23:59.821Z,37.63
2022-12-20T15:26:27.245Z,39.58
2022-12-20T15:28:54.580Z,36.17
2022-12-20T15:31:30.794Z,40.40
2022-12-20T15:33:59.311Z,38.00
2022-12-20T15:36:28.651Z,38.80
2022-12-20T15:39:12.442Z,42.20
2022-12-20T15:41:48.675Z,37.95
2022-12-20T15:44:23.626Z,38.55
2022-12-20T15:46:51.039Z,39.85
2022-12-20T15:49:22.446Z,35.88
2022-12-20T15:51:52.351Z,33.67
2022-12-20T15:54:29.504Z,29.73
2022-12-20T15:56:58.105Z,31.30
2022-12-20T15:59:58.510Z,26.08
2022-12-20T16:02:24.210Z,31.15
2022-12-20T16:04:51.600Z,32.42
2022-12-20T16:07:18.072Z,29.88
2022-12-20T16:09:44.732Z,33.90
2022-12-20T16:12:16.002Z,34.85
2022-12-20T16:14:42.527Z,28.63
2022-12-20T16:17:15.142Z,28.80
2022-12-20T16:19:43.075Z,31.80
2022-12-20T16:22:19.292Z,32.10
2022-12-20T16:24:46.333Z,29.38
2022-12-20T16:27:13.082Z,35.30
2022-12-20T16:29:41.288Z,29.75
2022-12-20T16:32:19.531Z,30.75
2022-12-20T16:34:46.359Z,33.63
2022-12-20T16:37:13.620Z,44.15
2022-12-20T16:39:41.227Z,39.33
2022-12-20T16:42:22.455Z,30.38
2022-12-20T16:44:53.310Z,34.35
2022-12-20T16:47:19.791Z,48.85
2022-12-20T16:49:52.342Z,35.22
2022-12-20T16:52:23.525Z,34.35
2022-12-20T16:54:50.371Z,30.45
2022-12-20T16:57:16.793Z,37.67
2022-12-20T16:59:43.223Z,47.58
2022-12-20T17:02:28.815Z,75.80
2022-12-20T17:04:56.308Z,106.10
2022-12-20T17:07:22.714Z,48.97
2022-12-20T17:09:49.354Z,43.05
2022-12-20T17:12:21.104Z,36.60
2022-12-20T17:14:48.901Z,34.03
2022-12-20T17:17:15.372Z,39.17
2022-12-20T17:19:41.911Z,33.70
2022-12-20T17:24:56.373Z,33.60
2022-12-20T17:27:22.821Z,32.38
2022-12-20T17:29:50.673Z,30.70
2022-12-20T17:32:20.953Z,31.00
2022-12-20T17:34:47.522Z,29.58
2022-12-20T17:37:13.983Z,31.65
2022-12-20T17:39:40.470Z,31.52
2022-12-20T17:42:09.392Z,31.58
2022-12-20T17:44:35.799Z,28.05
2022-12-20T17:47:02.293Z,28.00
2022-12-20T17:49:28.683Z,31.73
2022-12-20T17:51:56.197Z,29.05
2022-12-20T17:54:30.781Z,43.55
2022-12-20T17:57:01.509Z,63.58
2022-12-20T17:59:29.247Z,42.33
2022-12-20T18:01:55.927Z,35.50
2022-12-20T18:04:22.571Z,30.50
2022-12-20T18:06:49.852Z,35.92
2022-12-20T18:09:21.479Z,29.95
2022-12-20T18:11:48.700Z,34.65
2022-12-20T18:14:15.625Z,29.55
2022-12-20T18:16:42.189Z,30.60
2022-12-20T18:19:15.795Z,34.63
2022-12-20T18:21:42.319Z,35.30
2022-12-20T18:24:13.341Z,31.08
2022-12-20T18:26:40.071Z,30.30
2022-12-20T18:29:06.497Z,29.73
2022-12-20T18:31:34.791Z,31.58
2022-12-20T18:34:02.489Z,32.92
2022-12-20T18:36:36.916Z,34.60
2022-12-20T18:39:06.329Z,41.65
2022-12-20T18:41:33.084Z,34.03
2022-12-20T18:44:01.881Z,35.58
2022-12-20T18:46:29.198Z,36.45
2022-12-20T18:48:58.090Z,35.78
2022-12-20T18:51:30.443Z,33.50
2022-12-20T18:53:58.877Z,34.63
2022-12-20T18:56:31.450Z,36.55
2022-12-20T18:59:04.634Z,28.58
2022-12-20T19:01:35.876Z,28.38
2022-12-20T19:04:04.877Z,29.98
2022-12-20T19:06:32.407Z,35.55
2022-12-20T19:09:00.192Z,29.45
2022-12-20T19:11:26.650Z,26.60
2022-12-20T19:13:53.092Z,26.17
2022-12-20T19:16:22.336Z,27.52
2022-12-20T19:18:49.752Z,26.67
2022-12-20T19:21:24.328Z,27.23
2022-12-20T19:23:53.540Z,36.83
2022-12-20T19:26:21.571Z,48.30
2022-12-20T19:28:48.890Z,54.05
2022-12-20T19:31:23.680Z,51.17
2022-12-20T19:34:12.631Z,39.10
2022-12-20T19:36:42.712Z,53.60
2022-12-20T19:39:14.652Z,47.45
2022-12-20T19:41:41.223Z,33.30
2022-12-20T19:44:08.801Z,36.75
2022-12-20T19:46:35.511Z,33.50
2022-12-20T19:49:02.109Z,25.58
2022-12-20T19:51:28.903Z,28.00
2022-12-20T19:53:57.443Z,27.15
2022-12-20T19:56:33.610Z,25.63
2022-12-20T19:59:00.995Z,28.77
2022-12-20T20:01:28.419Z,33.65
2022-12-20T20:03:56.870Z,35.08
2022-12-20T20:06:24.703Z,30.80
2022-12-20T20:08:51.532Z,30.60
2022-12-20T20:11:20.138Z,32.58
2022-12-20T20:13:47.127Z,29.88
2022-12-20T20:16:19.987Z,27.75
2022-12-20T20:18:49.108Z,30.65
2022-12-20T20:21:20.855Z,29.63
2022-12-20T20:23:47.417Z,31.48
2022-12-20T20:26:17.469Z,29.85
2022-12-20T20:28:44.813Z,31.00
2022-12-20T20:31:16.970Z,32.25
2022-12-20T20:33:43.961Z,33.58
2022-12-20T20:36:14.198Z,33.65
2022-12-20T20:38:40.883Z,32.08
2022-12-20T20:41:07.490Z,32.45
2022-12-20T20:43:37.608Z,33.17
2022-12-20T20:46:05.086Z,33.83
2022-12-20T20:48:31.953Z,32.05
2022-12-20T20:50:58.847Z,34.67
2022-12-20T20:53:31.052Z,33.80
2022-12-20T20:55:59.708Z,33.55
2022-12-20T20:58:27.899Z,36.78
2022-12-20T21:00:59.437Z,31.23
2022-12-20T21:06:33.041Z,33.30
2022-12-20T21:08:40.076Z,32.97
2022-12-20T21:11:07.375Z,34.50
2022-12-20T21:13:34.076Z,35.35
2022-12-20T21:16:12.707Z,35.97
2022-12-20T21:18:39.690Z,35.67
2022-12-20T21:21:11.531Z,35.75
2022-12-20T21:23:39.604Z,34.72
2022-12-20T21:26:07.540Z,36.90
2022-12-20T21:28:34.447Z,35.85
2022-12-20T21:31:02.126Z,35.83
2022-12-20T21:33:29.181Z,33.60
2022-12-20T21:36:11.523Z,36.70
2022-12-20T21:38:37.983Z,33.60
2022-12-20T21:41:07.925Z,33.25
2022-12-20T21:43:34.506Z,32.75
2022-12-20T21:46:01.017Z,31.45
2022-12-20T21:48:29.653Z,37.13
2022-12-20T21:51:12.000Z,36.30
2022-12-20T21:53:43.672Z,32.13
2022-12-20T21:56:10.686Z,34.20
2022-12-20T21:58:37.817Z,36.25
2022-12-20T22:01:05.731Z,32.38
2022-12-20T22:03:54.805Z,33.63
2022-12-20T22:06:21.738Z,33.30
2022-12-20T22:08:48.275Z,35.58
2022-12-20T22:11:17.226Z,34.30
2022-12-20T22:13:44.618Z,37.25
2022-12-20T22:16:20.858Z,35.53
2022-12-20T22:18:52.606Z,34.58
2022-12-20T22:21:21.469Z,32.25
2022-12-20T22:23:48.369Z,33.40
2022-12-20T22:26:20.093Z,33.83
2022-12-20T22:28:51.978Z,32.80
2022-12-20T22:31:19.105Z,32.30
2022-12-20T22:33:46.188Z,31.60
2022-12-20T22:36:14.609Z,37.55
2022-12-20T22:38:42.803Z,35.30
2022-12-20T22:41:15.494Z,37.88
2022-12-20T22:43:44.580Z,34.70
2022-12-20T22:46:12.290Z,35.80
2022-12-20T22:48:39.551Z,36.47
2022-12-20T22:51:12.653Z,34.00
2022-12-20T22:53:40.180Z,34.05
2022-12-20T22:56:07.657Z,34.97
2022-12-20T22:58:35.316Z,35.15
2022-12-20T23:01:05.553Z,34.97
2022-12-20T23:03:32.285Z,33.22
2022-12-20T23:06:01.652Z,38.40
2022-12-20T23:08:32.113Z,36.70
2022-12-20T23:11:20.272Z,35.35
2022-12-20T23:14:05.103Z,36.63
2022-12-20T23:16:31.612Z,36.72
2022-12-20T23:19:00.800Z,35.45
2022-12-20T23:21:46.129Z,34.05
2022-12-20T23:24:13.429Z,35.65
2022-12-20T23:26:40.951Z,37.58
2022-12-20T23:29:08.963Z,37.42
2022-12-20T23:31:35.732Z,37.90
2022-12-20T23:34:02.799Z,35.90
2022-12-20T23:36:30.198Z,35.35
2022-12-20T23:38:56.919Z,34.83
2022-12-20T23:41:23.625Z,36.50
2022-12-20T23:43:50.101Z,36.38
2022-12-20T23:46:18.765Z,42.50
2022-12-20T23:48:45.578Z,36.97
2022-12-20T23:51:12.331Z,41.08
2022-12-20T23:53:39.168Z,37.10
2022-12-20T23:56:07.955Z,38.42
2022-12-20T23:58:35.073Z,39.13
